createdAt,value
2023-02-04T00:02:06.770Z,97.46
2023-02-04T00:04:33.349Z,98.08
2023-02-04T00:07:00.044Z,98.14
2023-02-04T00:09:26.640Z,98.19
2023-02-04T00:11:53.303Z,98.71
2023-02-04T00:14:19.872Z,98.79
2023-02-04T00:16:46.490Z,98.86
2023-02-04T00:19:13.046Z,99.54
2023-02-04T00:21:39.737Z,99.17
2023-02-04T00:24:06.526Z,100.00
2023-02-04T00:26:33.096Z,100.00
2023-02-04T00:28:59.834Z,99.38
2023-02-04T00:31:26.566Z,100.00
2023-02-04T00:33:53.297Z,100.00
2023-02-04T00:36:19.943Z,100.00
2023-02-04T00:38:46.487Z,99.86
2023-02-04T00:41:13.154Z,99.51
2023-02-04T00:43:39.594Z,99.83
2023-02-04T00:46:06.276Z,99.89
2023-02-04T00:48:34.404Z,100.00
2023-02-04T00:51:01.145Z,100.00
2023-02-04T00:53:27.683Z,100.00
2023-02-04T00:55:54.348Z,100.00
2023-02-04T00:58:20.809Z,100.00
2023-02-04T01:00:47.457Z,100.00
2023-02-04T01:03:14.288Z,100.00
2023-02-04T01:05:40.936Z,100.00
2023-02-04T01:08:07.683Z,100.00
2023-02-04T01:10:34.143Z,100.00
2023-02-04T01:13:02.153Z,100.00
2023-02-04T01:15:28.805Z,100.00
2023-02-04T01:17:55.596Z,100.00
2023-02-04T01:20:22.271Z,100.00
2023-02-04T01:22:49.004Z,100.00
2023-02-04T01:25:15.694Z,100.00
2023-02-04T01:27:43.735Z,100.00
2023-02-04T01:30:12.185Z,100.00
2023-02-04T01:32:38.817Z,100.00
2023-02-04T01:35:05.737Z,100.00
2023-02-04T01:37:32.424Z,100.00
2023-02-04T01:39:59.366Z,100.00
2023-02-04T01:42:26.648Z,100.00
2023-02-04T01:44:53.628Z,100.00
2023-02-04T01:47:21.298Z,100.00
2023-02-04T01:49:51.278Z,100.00
2023-02-04T01:52:18.186Z,100.00
2023-02-04T01:54:44.872Z,100.00
2023-02-04T01:57:15.763Z,100.00
2023-02-04T01:59:44.797Z,100.00
2023-02-04T02:02:56.953Z,100.00
2023-02-04T02:05:27.448Z,100.00
2023-02-04T02:07:56.443Z,100.00
2023-02-04T02:10:24.007Z,100.00
2023-02-04T02:12:50.941Z,100.00
2023-02-04T02:15:17.899Z,100.00
2023-02-04T02:17:44.962Z,100.00
2023-02-04T02:20:14.636Z,100.00
2023-02-04T02:23:02.672Z,100.00
2023-02-04T02:25:29.439Z,100.00
2023-02-04T02:27:57.719Z,100.00
2023-02-04T02:30:24.953Z,100.00
2023-02-04T02:32:52.609Z,100.00
2023-02-04T02:35:19.170Z,100.00
2023-02-04T02:37:45.846Z,100.00
2023-02-04T02:40:14.163Z,100.00
2023-02-04T02:42:44.121Z,100.00
2023-02-04T02:45:22.875Z,100.00
2023-02-04T02:47:50.297Z,100.00
2023-02-04T02:50:20.721Z,100.00
2023-02-04T02:52:47.433Z,100.00
2023-02-04T02:55:19.471Z,100.00
2023-02-04T02:57:47.941Z,100.00
2023-02-04T03:00:20.330Z,100.00
2023-02-04T03:02:57.142Z,100.00
2023-02-04T03:05:25.085Z,100.00
2023-02-04T03:07:51.868Z,100.00
2023-02-04T03:10:18.809Z,100.00
2023-02-04T03:12:47.183Z,100.00
2023-02-04T03:15:15.198Z,100.00
2023-02-04T03:17:42.602Z,100.00
2023-02-04T03:20:10.357Z,100.00
2023-02-04T03:22:37.139Z,100.00
2023-02-04T03:25:04.032Z,100.00
2023-02-04T03:27:30.763Z,100.00
2023-02-04T03:29:57.355Z,100.00
2023-02-04T03:32:23.899Z,100.00
2023-02-04T03:34:50.470Z,100.00
2023-02-04T03:37:17.078Z,100.00
2023-02-04T03:39:43.741Z,100.00
2023-02-04T03:42:10.397Z,100.00
2023-02-04T03:44:36.985Z,100.00
2023-02-04T03:47:03.621Z,100.00
2023-02-04T03:49:32.289Z,100.00
2023-02-04T03:51:58.946Z,100.00
2023-02-04T03:54:25.501Z,100.00
2023-02-04T03:56:52.270Z,100.00
2023-02-04T03:59:18.954Z,100.00
2023-02-04T04:01:45.798Z,100.00
2023-02-04T04:04:12.380Z,100.00
2023-02-04T04:06:38.974Z,100.00
2023-02-04T04:09:05.641Z,100.00
2023-02-04T04:11:32.220Z,100.00
2023-02-04T04:13:59.044Z,100.00
2023-02-04T04:16:25.507Z,100.00
2023-02-04T04:18:52.032Z,100.00
2023-02-04T04:21:18.662Z,100.00
2023-02-04T04:23:45.284Z,100.00
2023-02-04T04:26:11.873Z,100.00
2023-02-04T04:28:38.509Z,100.00
2023-02-04T04:31:05.390Z,100.00
2023-02-04T04:33:32.106Z,100.00
2023-02-04T04:35:58.681Z,100.00
2023-02-04T04:38:25.392Z,100.00
2023-02-04T04:40:51.953Z,100.00
2023-02-04T04:43:18.450Z,100.00
2023-02-04T04:45:45.087Z,100.00
2023-02-04T04:48:11.688Z,100.00
2023-02-04T04:50:38.287Z,100.00
2023-02-04T04:53:05.118Z,100.00
2023-02-04T04:55:32.923Z,100.00
2023-02-04T04:57:59.565Z,100.00
2023-02-04T05:00:26.421Z,100.00
2023-02-04T05:02:52.952Z,100.00
2023-02-04T05:05:19.602Z,100.00
2023-02-04T05:07:46.226Z,100.00
2023-02-04T05:10:12.833Z,100.00
2023-02-04T05:12:39.482Z,100.00
2023-02-04T05:15:06.463Z,100.00
2023-02-04T05:17:33.076Z,100.00
2023-02-04T05:19:59.673Z,100.00
2023-02-04T05:22:26.268Z,100.00
2023-02-04T05:24:52.888Z,100.00
2023-02-04T05:27:19.479Z,100.00
2023-02-04T05:29:46.206Z,100.00
2023-02-04T05:32:12.882Z,100.00
2023-02-04T05:34:40.049Z,100.00
2023-02-04T05:37:06.704Z,100.00
2023-02-04T05:39:33.234Z,100.00
2023-02-04T05:41:59.774Z,100.00
2023-02-04T05:44:27.580Z,100.00
2023-02-04T05:46:54.271Z,100.00
2023-02-04T05:49:21.160Z,100.00
2023-02-04T05:51:47.806Z,100.00
2023-02-04T05:54:19.523Z,100.00
2023-02-04T05:56:47.356Z,100.00
2023-02-04T05:59:14.029Z,100.00
2023-02-04T06:01:40.653Z,100.00
2023-02-04T06:04:07.280Z,100.00
2023-02-04T06:06:34.160Z,100.00
2023-02-04T06:09:01.374Z,100.00
2023-02-04T06:11:28.350Z,100.00
2023-02-04T06:13:55.282Z,100.00
2023-02-04T06:16:22.019Z,100.00
2023-02-04T06:18:48.826Z,100.00
2023-02-04T06:21:15.586Z,100.00
2023-02-04T06:23:42.151Z,100.00
2023-02-04T06:26:09.035Z,100.00
2023-02-04T06:28:35.786Z,100.00
2023-02-04T06:31:02.583Z,100.00
2023-02-04T06:33:29.280Z,100.00
2023-02-04T06:35:55.892Z,100.00
2023-02-04T06:38:22.452Z,100.00
2023-02-04T06:40:49.577Z,100.00
2023-02-04T06:43:16.468Z,100.00
2023-02-04T06:45:43.198Z,100.00
2023-02-04T06:48:09.893Z,100.00
2023-02-04T06:50:36.573Z,100.00
2023-02-04T06:53:03.173Z,100.00
2023-02-04T06:55:29.922Z,100.00
2023-02-04T06:57:56.440Z,100.00
2023-02-04T07:00:23.305Z,100.00
2023-02-04T07:02:50.103Z,100.00
2023-02-04T07:05:16.949Z,100.00
2023-02-04T07:07:43.692Z,100.00
2023-02-04T07:10:10.798Z,100.00
2023-02-04T07:12:37.520Z,100.00
2023-02-04T07:15:04.625Z,100.00
2023-02-04T07:17:31.259Z,100.00
2023-02-04T07:19:57.731Z,100.00
2023-02-04T07:22:24.294Z,100.00
2023-02-04T07:24:50.968Z,100.00
2023-02-04T07:27:17.985Z,100.00
2023-02-04T07:29:44.720Z,100.00
2023-02-04T07:32:11.582Z,100.00
2023-02-04T07:34:38.062Z,100.00
2023-02-04T07:37:04.888Z,100.00
2023-02-04T07:39:31.666Z,100.00
2023-02-04T07:41:58.356Z,100.00
2023-02-04T07:44:25.067Z,100.00
2023-02-04T07:46:51.733Z,100.00
2023-02-04T07:49:18.924Z,100.00
2023-02-04T07:51:45.566Z,100.00
2023-02-04T07:54:12.232Z,100.00
2023-02-04T07:56:38.875Z,100.00
2023-02-04T07:59:05.955Z,100.00
2023-02-04T08:01:33.283Z,100.00
2023-02-04T08:04:00.134Z,100.00
2023-02-04T08:06:26.716Z,100.00
2023-02-04T08:08:53.457Z,100.00
2023-02-04T08:11:20.129Z,100.00
2023-02-04T08:13:46.761Z,100.00
2023-02-04T08:16:20.370Z,100.00
2023-02-04T08:18:46.851Z,100.00
2023-02-04T08:21:13.525Z,100.00
2023-02-04T08:23:41.954Z,100.00
2023-02-04T08:26:12.636Z,100.00
2023-02-04T08:28:39.541Z,100.00
2023-02-04T08:31:07.404Z,100.00
2023-02-04T08:33:34.167Z,100.00
2023-02-04T08:36:00.887Z,100.00
2023-02-04T08:38:27.632Z,100.00
2023-02-04T08:40:54.451Z,100.00
2023-02-04T08:43:21.235Z,100.00
2023-02-04T08:45:48.094Z,100.00
2023-02-04T08:48:14.816Z,100.00
2023-02-04T08:50:41.466Z,100.00
2023-02-04T08:53:08.088Z,100.00
2023-02-04T08:55:34.655Z,100.00
2023-02-04T08:58:02.713Z,100.00
2023-02-04T09:00:30.525Z,100.00
2023-02-04T09:02:57.438Z,99.14
2023-02-04T09:05:24.029Z,98.61
2023-02-04T09:07:50.692Z,97.07
2023-02-04T09:10:17.372Z,97.09
2023-02-04T09:12:44.036Z,96.57
2023-02-04T09:15:11.978Z,97.02
2023-02-04T09:17:39.143Z,96.42
2023-02-04T09:20:06.689Z,95.67
2023-02-04T09:22:33.441Z,95.83
2023-02-04T09:25:00.101Z,93.62
2023-02-04T09:27:26.812Z,96.07
2023-02-04T09:29:53.455Z,93.33
2023-02-04T09:32:19.987Z,92.56
2023-02-04T09:34:46.679Z,92.26
2023-02-04T09:37:13.519Z,87.86
2023-02-04T09:39:40.223Z,86.96
2023-02-04T09:42:07.484Z,86.82
2023-02-04T09:44:34.338Z,85.25
2023-02-04T09:47:01.702Z,86.03
2023-02-04T09:49:28.869Z,87.80
2023-02-04T09:51:56.060Z,91.31
2023-02-04T09:54:24.038Z,92.61
2023-02-04T09:56:52.167Z,92.97
2023-02-04T09:59:22.019Z,94.25
2023-02-04T10:01:55.893Z,93.80
2023-02-04T10:04:23.121Z,94.58
2023-02-04T10:06:50.117Z,94.47
2023-02-04T10:09:18.012Z,93.23
2023-02-04T10:11:47.682Z,92.40
2023-02-04T10:14:23.027Z,90.48
2023-02-04T10:16:58.930Z,85.59
2023-02-04T10:19:28.993Z,85.79
2023-02-04T10:21:56.408Z,85.83
2023-02-04T10:24:26.664Z,84.83
2023-02-04T10:26:54.254Z,84.68
2023-02-04T10:29:25.876Z,83.58
2023-02-04T10:31:53.167Z,84.01
2023-02-04T10:34:22.450Z,84.74
2023-02-04T10:36:52.034Z,84.54
2023-02-04T10:39:20.151Z,82.96
2023-02-04T10:41:55.517Z,83.99
2023-02-04T10:44:36.178Z,84.19
2023-02-04T10:47:14.664Z,84.33
2023-02-04T10:49:51.586Z,84.85
2023-02-04T10:52:20.243Z,83.08
2023-02-04T10:54:47.862Z,82.49
2023-02-04T10:57:26.824Z,82.35
2023-02-04T11:00:02.497Z,81.23
2023-02-04T11:02:43.616Z,80.41
2023-02-04T11:05:22.621Z,81.18
2023-02-04T11:07:50.712Z,80.43
2023-02-04T11:10:21.412Z,79.38
2023-02-04T11:13:21.232Z,77.75
2023-02-04T11:16:07.467Z,76.85
2023-02-04T11:19:04.113Z,75.93
2023-02-04T11:21:33.652Z,75.30
2023-02-04T11:24:12.452Z,77.19
2023-02-04T11:26:44.067Z,78.91
2023-02-04T11:29:16.849Z,79.56
2023-02-04T11:31:49.603Z,81.50
2023-02-04T11:34:16.310Z,80.68
2023-02-04T11:36:56.829Z,80.52
2023-02-04T11:39:28.896Z,78.61
2023-02-04T11:41:55.561Z,78.97
2023-02-04T11:44:23.299Z,79.57
2023-02-04T11:46:57.000Z,80.92
2023-02-04T11:49:25.796Z,81.68
2023-02-04T11:52:04.522Z,81.47
2023-02-04T11:54:31.107Z,80.79
2023-02-04T11:57:00.396Z,81.12
2023-02-04T11:59:27.205Z,81.41
2023-02-04T12:02:05.324Z,81.23
2023-02-04T12:04:31.854Z,81.01
2023-02-04T12:07:00.803Z,81.11
2023-02-04T12:09:32.529Z,80.67
2023-02-04T12:12:02.008Z,80.91
2023-02-04T12:14:37.129Z,79.90
2023-02-04T12:17:17.826Z,81.48
2023-02-04T12:19:44.469Z,81.75
2023-02-04T12:22:11.271Z,83.04
2023-02-04T12:24:37.913Z,82.43
2023-02-04T12:27:04.640Z,82.22
2023-02-04T12:29:31.141Z,82.18
2023-02-04T12:31:57.931Z,82.08
2023-02-04T12:34:24.805Z,81.79
2023-02-04T12:36:51.477Z,81.56
2023-02-04T12:39:18.185Z,81.43
2023-02-04T12:41:45.220Z,80.57
2023-02-04T12:44:11.950Z,81.78
2023-02-04T12:46:38.704Z,82.57
2023-02-04T12:49:05.464Z,81.71
2023-02-04T12:51:33.643Z,80.54
2023-02-04T12:54:00.193Z,79.44
2023-02-04T12:56:26.851Z,79.82
2023-02-04T12:58:53.534Z,79.51
2023-02-04T13:01:20.288Z,80.06
2023-02-04T13:03:47.055Z,79.88
2023-02-04T13:06:13.682Z,80.74
2023-02-04T13:08:40.481Z,80.18
2023-02-04T13:11:07.292Z,80.58
2023-02-04T13:13:33.851Z,77.01
2023-02-04T13:16:00.632Z,77.52
2023-02-04T13:18:27.551Z,78.81
2023-02-04T13:20:54.105Z,78.52
2023-02-04T13:23:20.630Z,79.33
2023-02-04T13:25:47.327Z,78.92
2023-02-04T13:28:14.303Z,79.28
2023-02-04T13:30:41.011Z,78.63
2023-02-04T13:33:07.523Z,78.79
2023-02-04T13:35:34.538Z,78.56
2023-02-04T13:38:01.569Z,78.63
2023-02-04T13:40:28.307Z,76.72
2023-02-04T13:42:55.058Z,77.60
2023-02-04T13:45:22.047Z,76.27
2023-02-04T13:47:49.099Z,76.57
2023-02-04T13:50:16.874Z,75.76
2023-02-04T13:52:43.839Z,73.92
2023-02-04T13:55:10.478Z,74.16
2023-02-04T13:57:38.085Z,74.14
2023-02-04T14:00:07.333Z,73.02
2023-02-04T14:02:34.732Z,73.24
2023-02-04T14:05:01.964Z,72.00
2023-02-04T14:07:28.731Z,71.85
2023-02-04T14:09:55.317Z,70.94
2023-02-04T14:12:22.231Z,71.35
2023-02-04T14:14:48.892Z,71.09
2023-02-04T14:17:15.575Z,71.67
2023-02-04T14:19:42.188Z,72.05
2023-02-04T14:22:12.895Z,73.18
2023-02-04T14:24:42.766Z,73.07
2023-02-04T14:27:10.622Z,74.78
2023-02-04T14:29:37.432Z,74.41
2023-02-04T14:32:10.922Z,73.23
2023-02-04T14:34:37.446Z,73.59
2023-02-04T14:37:04.166Z,73.84
2023-02-04T14:39:30.791Z,74.80
2023-02-04T14:41:57.831Z,74.00
2023-02-04T14:44:24.459Z,73.06
2023-02-04T14:46:51.206Z,73.32
2023-02-04T14:49:17.931Z,72.83
2023-02-04T14:51:44.537Z,72.18
2023-02-04T14:54:11.532Z,73.33
2023-02-04T14:56:38.295Z,73.72
2023-02-04T14:59:05.502Z,75.32
2023-02-04T15:01:32.210Z,75.55
2023-02-04T15:03:58.975Z,75.36
2023-02-04T15:06:25.770Z,76.62
2023-02-04T15:08:52.586Z,78.81
2023-02-04T15:11:19.285Z,79.02
2023-02-04T15:13:46.075Z,79.92
2023-02-04T15:16:14.449Z,79.98
2023-02-04T15:18:41.832Z,80.35
2023-02-04T15:21:08.819Z,81.62
2023-02-04T15:23:35.637Z,82.50
2023-02-04T15:26:02.657Z,82.78
2023-02-04T15:28:31.276Z,82.92
2023-02-04T15:30:58.513Z,83.21
2023-02-04T15:33:25.271Z,83.43
2023-02-04T15:35:52.011Z,83.29
2023-02-04T15:38:18.678Z,83.38
2023-02-04T15:40:45.266Z,83.41
2023-02-04T15:43:12.267Z,82.92
2023-02-04T15:45:41.552Z,83.73
2023-02-04T15:48:08.775Z,83.65
2023-02-04T15:50:36.046Z,83.79
2023-02-04T15:53:03.442Z,83.97
2023-02-04T15:55:30.129Z,83.90
2023-02-04T15:57:56.792Z,83.68
2023-02-04T16:00:24.215Z,84.21
2023-02-04T16:02:51.249Z,85.02
2023-02-04T16:05:18.040Z,84.80
2023-02-04T16:07:44.777Z,84.78
2023-02-04T16:10:11.855Z,84.66
2023-02-04T16:12:38.578Z,84.86
2023-02-04T16:15:05.633Z,84.51
2023-02-04T16:17:32.202Z,84.93
2023-02-04T16:19:58.997Z,85.16
2023-02-04T16:22:25.701Z,85.42
2023-02-04T16:24:53.132Z,85.79
2023-02-04T16:27:20.122Z,86.11
2023-02-04T16:29:46.792Z,86.33
2023-02-04T16:32:14.278Z,87.28
2023-02-04T16:34:41.551Z,87.56
2023-02-04T16:37:08.280Z,87.54
2023-02-04T16:39:36.973Z,88.03
2023-02-04T16:42:06.570Z,88.44
2023-02-04T16:44:33.060Z,89.17
2023-02-04T16:46:59.678Z,90.51
2023-02-04T16:49:26.588Z,91.20
2023-02-04T16:51:53.286Z,91.89
2023-02-04T16:54:19.981Z,92.48
2023-02-04T16:56:46.746Z,93.21
2023-02-04T16:59:13.484Z,93.39
2023-02-04T17:01:40.112Z,93.67
2023-02-04T17:04:06.876Z,93.62
2023-02-04T17:06:34.199Z,93.14
2023-02-04T17:09:00.789Z,93.47
2023-02-04T17:11:30.237Z,93.01
2023-02-04T17:14:01.524Z,93.19
2023-02-04T17:16:29.476Z,93.59
2023-02-04T17:18:56.857Z,94.31
2023-02-04T17:21:25.443Z,94.79
2023-02-04T17:23:52.463Z,95.09
2023-02-04T17:26:19.882Z,95.12
2023-02-04T17:28:46.653Z,96.07
2023-02-04T17:31:13.632Z,96.40
2023-02-04T17:33:40.329Z,96.69
2023-02-04T17:36:07.451Z,96.61
2023-02-04T17:38:34.233Z,96.48
2023-02-04T17:41:02.728Z,96.07
2023-02-04T17:43:29.464Z,96.38
2023-02-04T17:45:56.086Z,96.72
2023-02-04T17:48:22.660Z,97.31
2023-02-04T17:50:49.076Z,97.28
2023-02-04T17:53:15.565Z,97.38
2023-02-04T17:55:41.980Z,96.64
2023-02-04T17:58:23.753Z,97.41
2023-02-04T18:00:51.767Z,97.86
2023-02-04T18:03:21.487Z,98.73
2023-02-04T18:05:50.920Z,99.04
2023-02-04T18:08:27.651Z,98.97
2023-02-04T18:10:55.895Z,98.98
2023-02-04T18:13:30.838Z,99.24
2023-02-04T18:16:22.097Z,99.60
2023-02-04T18:18:48.726Z,100.00
2023-02-04T18:21:23.359Z,100.00
2023-02-04T18:23:56.579Z,100.00
2023-02-04T18:26:25.864Z,100.00
2023-02-04T18:28:52.911Z,99.40
2023-02-04T18:31:31.291Z,99.24
2023-02-04T18:33:58.101Z,99.74
2023-02-04T18:36:27.442Z,99.97
2023-02-04T18:38:55.221Z,100.00
2023-02-04T18:41:31.636Z,100.00
2023-02-04T18:44:17.619Z,100.00
2023-02-04T18:46:47.917Z,100.00
2023-02-04T18:49:33.548Z,100.00
2023-02-04T18:52:09.789Z,100.00
2023-02-04T18:54:37.633Z,99.77
2023-02-04T18:57:13.566Z,99.60
2023-02-04T18:59:40.599Z,99.43
2023-02-04T19:02:41.274Z,99.13
2023-02-04T19:05:28.412Z,98.82
2023-02-04T19:08:22.750Z,98.51
2023-02-04T19:10:50.181Z,98.31
2023-02-04T19:13:37.279Z,98.17
2023-02-04T19:16:26.095Z,98.33
2023-02-04T19:18:56.865Z,98.57
2023-02-04T19:21:31.531Z,98.72
2023-02-04T19:24:19.564Z,98.82
2023-02-04T19:27:00.224Z,99.24
2023-02-04T19:29:41.758Z,99.28
2023-02-04T19:32:21.917Z,99.42
2023-02-04T19:34:48.718Z,99.37
2023-02-04T19:37:23.518Z,98.93
2023-02-04T19:39:51.627Z,98.58
2023-02-04T19:42:36.836Z,98.56
2023-02-04T19:45:25.543Z,98.59
2023-02-04T19:47:54.220Z,99.34
2023-02-04T19:50:22.428Z,99.52
2023-02-04T19:52:56.728Z,99.47
2023-02-04T19:55:30.011Z,98.97
2023-02-04T19:58:18.386Z,99.29
2023-02-04T20:00:58.044Z,99.07
2023-02-04T20:03:40.468Z,98.63
2023-02-04T20:06:09.996Z,99.01
2023-02-04T20:08:56.892Z,98.97
2023-02-04T20:11:35.705Z,98.73
2023-02-04T20:14:14.385Z,99.04
2023-02-04T20:16:47.035Z,98.92
2023-02-04T20:19:26.223Z,99.03
2023-02-04T20:22:17.690Z,99.42
2023-02-04T20:24:47.546Z,100.00
2023-02-04T20:27:23.875Z,100.00
2023-02-04T20:29:58.847Z,100.00
2023-02-04T20:32:27.785Z,99.62
2023-02-04T20:35:04.588Z,99.37
2023-02-04T20:37:31.588Z,99.45
2023-02-04T20:40:00.127Z,99.89
2023-02-04T20:42:28.867Z,99.57
2023-02-04T20:45:08.044Z,99.97
2023-02-04T20:47:35.205Z,99.97
2023-02-04T20:50:01.882Z,99.86
2023-02-04T20:52:40.428Z,100.00
2023-02-04T20:55:29.837Z,100.00
2023-02-04T20:58:21.021Z,100.00
2023-02-04T21:00:52.444Z,100.00
2023-02-04T21:03:24.338Z,100.00
2023-02-04T21:05:52.541Z,100.00
2023-02-04T21:08:42.391Z,100.00
2023-02-04T21:11:09.246Z,100.00
2023-02-04T21:13:36.456Z,100.00
2023-02-04T21:16:03.870Z,100.00
2023-02-04T21:18:31.171Z,100.00
2023-02-04T21:20:57.821Z,100.00
2023-02-04T21:23:24.600Z,100.00
2023-02-04T21:25:51.195Z,100.00
2023-02-04T21:28:18.043Z,100.00
2023-02-04T21:30:44.752Z,100.00
2023-02-04T21:33:11.863Z,100.00
2023-02-04T21:35:39.749Z,100.00
2023-02-04T21:38:07.551Z,100.00
2023-02-04T21:40:36.540Z,100.00
2023-02-04T21:43:06.456Z,100.00
2023-02-04T21:45:33.820Z,100.00
2023-02-04T21:48:00.962Z,100.00
2023-02-04T21:50:27.660Z,100.00
2023-02-04T21:52:54.342Z,100.00
2023-02-04T21:55:21.805Z,100.00
2023-02-04T21:57:53.407Z,100.00
2023-02-04T22:00:23.856Z,100.00
2023-02-04T22:02:54.221Z,100.00
2023-02-04T22:05:21.939Z,100.00
2023-02-04T22:07:49.635Z,100.00
2023-02-04T22:10:19.983Z,100.00
2023-02-04T22:12:46.774Z,100.00
2023-02-04T22:15:13.436Z,100.00
2023-02-04T22:17:39.887Z,100.00
2023-02-04T22:20:06.872Z,100.00
2023-02-04T22:22:33.429Z,100.00
2023-02-04T22:25:00.201Z,100.00
2023-02-04T22:27:26.825Z,100.00
2023-02-04T22:29:53.585Z,100.00
2023-02-04T22:32:20.226Z,100.00
2023-02-04T22:34:46.764Z,100.00
2023-02-04T22:37:13.584Z,100.00
2023-02-04T22:39:40.283Z,100.00
2023-02-04T22:42:08.736Z,100.00
2023-02-04T22:44:35.489Z,100.00
2023-02-04T22:47:02.157Z,100.00
2023-02-04T22:49:29.381Z,100.00
2023-02-04T22:51:56.013Z,100.00
2023-02-04T22:54:22.817Z,100.00
2023-02-04T22:56:49.447Z,100.00
2023-02-04T22:59:15.940Z,100.00
2023-02-04T23:01:42.639Z,100.00
2023-02-04T23:04:09.311Z,100.00
2023-02-04T23:06:37.300Z,100.00
2023-02-04T23:09:04.074Z,100.00
2023-02-04T23:11:30.746Z,100.00
2023-02-04T23:13:57.292Z,100.00
2023-02-04T23:16:24.037Z,100.00
2023-02-04T23:18:50.728Z,100.00
2023-02-04T23:21:17.675Z,100.00
2023-02-04T23:23:44.489Z,100.00
2023-02-04T23:26:11.102Z,100.00
2023-02-04T23:28:37.833Z,100.00
2023-02-04T23:31:04.466Z,100.00
2023-02-04T23:33:31.258Z,100.00
2023-02-04T23:35:58.045Z,100.00
2023-02-04T23:38:24.926Z,100.00
2023-02-04T23:40:51.582Z,100.00
2023-02-04T23:43:18.376Z,100.00
2023-02-04T23:45:45.934Z,100.00
2023-02-04T23:48:12.707Z,100.00
2023-02-04T23:50:39.416Z,100.00
2023-02-04T23:53:06.019Z,100.00
2023-02-04T23:55:33.318Z,100.00
2023-02-04T23:58:00.370Z,100.00
